createdAt,value
2022-09-05T00:02:49.656Z,97.60
2022-09-05T00:06:03.532Z,97.50
2022-09-05T00:09:04.175Z,97.60
2022-09-05T00:12:06.311Z,97.60
2022-09-05T00:15:24.256Z,97.70
2022-09-05T00:24:19.669Z,97.80
2022-09-05T00:24:35.702Z,98.00
2022-09-05T00:25:31.610Z,98.10
2022-09-05T00:29:01.924Z,98.10
2022-09-05T00:32:25.362Z,98.00
2022-09-05T00:35:12.497Z,97.90
2022-09-05T00:38:32.118Z,97.90
2022-09-05T00:41:24.835Z,97.80
2022-09-05T00:44:21.525Z,97.90
2022-09-05T00:47:33.452Z,98.00
2022-09-05T00:50:55.310Z,98.20
2022-09-05T00:53:58.432Z,98.20
2022-09-05T00:56:57.909Z,98.50
2022-09-05T01:00:26.454Z,98.60
2022-09-05T01:03:32.089Z,98.70
2022-09-05T01:06:46.335Z,98.80
2022-09-05T01:09:37.285Z,98.90
2022-09-05T01:12:56.339Z,99.00
2022-09-05T01:16:11.447Z,99.20
2022-09-05T01:19:37.423Z,99.30
2022-09-05T01:22:43.389Z,99.50
2022-09-05T01:25:55.056Z,99.70
2022-09-05T01:29:17.658Z,99.80
2022-09-05T01:32:24.280Z,99.90
2022-09-05T01:36:03.493Z,99.90
2022-09-05T01:40:11.469Z,99.90
2022-09-05T01:42:48.666Z,99.90
2022-09-05T01:45:48.834Z,99.90
2022-09-05T01:48:51.301Z,99.90
2022-09-05T01:52:07.418Z,99.90
2022-09-05T01:55:09.689Z,99.90
2022-09-05T01:58:41.489Z,99.90
2022-09-05T02:01:33.415Z,99.90
2022-09-05T02:04:41.446Z,99.90
2022-09-05T02:07:49.914Z,99.90
2022-09-05T02:11:10.424Z,99.90
2022-09-05T02:14:37.983Z,99.90
2022-09-05T02:17:51.518Z,99.90
2022-09-05T02:20:41.925Z,99.90
2022-09-05T02:23:52.434Z,99.90
2022-09-05T02:27:47.551Z,99.90
2022-09-05T02:30:47.405Z,99.90
2022-09-05T02:34:13.533Z,99.90
2022-09-05T02:40:00.940Z,99.90
2022-09-05T02:45:13.847Z,99.90
2022-09-05T02:45:16.499Z,99.90
2022-09-05T02:47:59.561Z,99.90
2022-09-05T02:57:28.629Z,99.90
2022-09-05T02:57:36.862Z,99.90
2022-09-05T02:58:16.713Z,99.90
2022-09-05T03:01:41.686Z,99.90
2022-09-05T03:04:46.123Z,99.90
2022-09-05T03:08:00.567Z,99.90
2022-09-05T03:11:00.823Z,99.90
2022-09-05T03:14:17.546Z,99.90
2022-09-05T03:17:37.932Z,99.90
2022-09-05T03:21:11.633Z,99.90
2022-09-05T03:24:11.882Z,99.90
2022-09-05T03:27:23.716Z,99.90
2022-09-05T03:30:19.669Z,99.90
2022-09-05T03:33:48.658Z,99.90
2022-09-05T03:36:50.779Z,99.90
2022-09-05T03:40:15.720Z,99.90
2022-09-05T03:43:21.426Z,99.90
2022-09-05T03:46:38.637Z,99.90
2022-09-05T03:54:15.079Z,99.90
2022-09-05T03:57:14.941Z,99.90
2022-09-05T03:57:22.673Z,99.90
2022-09-05T04:00:10.766Z,99.90
2022-09-05T04:08:05.716Z,99.90
2022-09-05T04:08:16.718Z,99.90
2022-09-05T04:09:59.750Z,99.90
2022-09-05T04:12:55.741Z,99.90
2022-09-05T04:15:54.660Z,99.90
2022-09-05T04:19:01.788Z,99.90
2022-09-05T04:21:58.197Z,99.90
2022-09-05T04:25:13.649Z,99.90
2022-09-05T04:28:41.411Z,99.90
2022-09-05T04:32:06.546Z,99.90
2022-09-05T04:35:10.434Z,99.90
2022-09-05T04:38:19.761Z,99.90
2022-09-05T04:41:39.423Z,99.90
2022-09-05T04:44:55.846Z,99.90
2022-09-05T04:47:58.689Z,99.90
2022-09-05T04:51:04.926Z,99.90
2022-09-05T04:54:18.831Z,99.90
2022-09-05T04:57:18.628Z,99.90
2022-09-05T05:05:59.655Z,99.90
2022-09-05T05:06:10.309Z,99.90
2022-09-05T05:07:09.699Z,99.90
2022-09-05T05:11:08.832Z,99.90
2022-09-05T05:18:02.535Z,99.90
2022-09-05T05:18:10.726Z,99.90
2022-09-05T05:21:03.817Z,99.90
2022-09-05T05:23:55.884Z,99.90
2022-09-05T05:26:59.746Z,99.90
2022-09-05T05:30:11.792Z,99.90
2022-09-05T05:33:09.782Z,99.90
2022-09-05T05:36:09.806Z,99.90
2022-09-05T05:39:20.928Z,99.90
2022-09-05T05:42:22.162Z,99.90
2022-09-05T05:45:31.773Z,99.90
2022-09-05T05:48:26.252Z,99.90
2022-09-05T05:52:01.517Z,99.90
2022-09-05T05:55:28.416Z,99.90
2022-09-05T05:58:34.739Z,99.90
2022-09-05T06:01:43.954Z,99.90
2022-09-05T06:05:41.864Z,99.90
2022-09-05T06:12:33.235Z,99.90
2022-09-05T06:14:58.261Z,99.90
2022-09-05T06:16:14.305Z,99.90
2022-09-05T06:19:28.912Z,99.90
2022-09-05T06:22:51.201Z,99.90
2022-09-05T06:26:06.822Z,99.90
2022-09-05T06:28:56.629Z,99.90
2022-09-05T06:32:28.836Z,99.90
2022-09-05T06:36:04.659Z,99.90
2022-09-05T06:39:03.776Z,99.90
2022-09-05T06:42:28.522Z,99.90
2022-09-05T06:45:27.337Z,99.90
2022-09-05T06:48:45.903Z,99.90
2022-09-05T06:52:28.738Z,99.90
2022-09-05T06:55:45.918Z,99.90
2022-09-05T06:58:50.948Z,99.90
2022-09-05T07:02:13.974Z,99.90
2022-09-05T07:05:44.498Z,99.90
2022-09-05T07:09:00.911Z,99.90
2022-09-05T07:12:03.919Z,99.90
2022-09-05T07:15:08.800Z,99.90
2022-09-05T07:18:27.393Z,99.90
2022-09-05T07:21:38.962Z,99.90
2022-09-05T07:24:54.287Z,99.90
2022-09-05T07:28:25.966Z,99.90
2022-09-05T07:31:26.324Z,99.90
2022-09-05T07:34:35.960Z,99.90
2022-09-05T07:37:33.009Z,99.90
2022-09-05T07:40:30.029Z,99.90
2022-09-05T07:43:29.999Z,99.90
2022-09-05T07:46:24.228Z,99.90
2022-09-05T07:49:24.956Z,99.90
2022-09-05T07:56:49.427Z,99.90
2022-09-05T07:56:50.756Z,99.90
2022-09-05T07:58:50.617Z,99.90
2022-09-05T08:01:47.022Z,99.90
2022-09-05T08:04:36.901Z,99.90
2022-09-05T08:07:50.080Z,99.90
2022-09-05T08:11:25.092Z,99.90
2022-09-05T08:14:49.026Z,99.90
2022-09-05T08:17:49.207Z,99.90
2022-09-05T08:21:18.158Z,99.90
2022-09-05T08:24:28.094Z,99.90
2022-09-05T08:27:30.048Z,99.90
2022-09-05T08:30:26.946Z,99.90
2022-09-05T08:33:29.050Z,99.90
2022-09-05T08:36:37.743Z,99.90
2022-09-05T08:39:36.108Z,99.90
2022-09-05T08:42:49.428Z,99.90
2022-09-05T08:46:46.370Z,99.90
2022-09-05T08:49:55.103Z,99.90
2022-09-05T08:53:45.244Z,99.80
2022-09-05T08:56:58.090Z,99.60
2022-09-05T09:00:19.073Z,99.60
2022-09-05T09:03:39.162Z,98.60
2022-09-05T09:07:47.240Z,98.20
2022-09-05T09:10:46.316Z,97.60
2022-09-05T09:14:03.210Z,97.10
2022-09-05T09:17:30.277Z,96.60
2022-09-05T09:20:45.067Z,96.00
2022-09-05T09:23:49.041Z,95.30
2022-09-05T09:27:09.115Z,95.00
2022-09-05T09:30:03.867Z,94.50
2022-09-05T09:32:59.525Z,94.10
2022-09-05T09:36:13.183Z,93.70
2022-09-05T09:39:11.695Z,93.30
2022-09-05T09:42:42.188Z,92.80
2022-09-05T09:45:57.884Z,92.00
2022-09-05T09:49:23.101Z,91.40
2022-09-05T09:52:36.173Z,91.00
2022-09-05T09:55:41.053Z,90.80
2022-09-05T09:58:37.184Z,90.60
2022-09-05T10:02:14.237Z,88.20
2022-09-05T10:10:35.612Z,87.60
2022-09-05T10:10:59.082Z,86.70
2022-09-05T10:12:35.182Z,86.50
2022-09-05T10:15:31.641Z,87.40
2022-09-05T10:19:09.230Z,86.30
2022-09-05T10:22:37.396Z,85.60
2022-09-05T10:25:40.393Z,84.60
2022-09-05T10:28:51.436Z,83.90
2022-09-05T10:35:07.536Z,81.20
2022-09-05T10:35:22.312Z,81.10
2022-09-05T10:38:43.568Z,81.30
2022-09-05T10:42:03.250Z,81.40
2022-09-05T10:45:02.342Z,81.30
2022-09-05T10:48:18.261Z,80.50
2022-09-05T10:51:28.076Z,80.50
2022-09-05T10:54:39.276Z,79.90
2022-09-05T10:57:29.446Z,78.50
2022-09-05T11:02:20.026Z,78.30
2022-09-05T11:04:12.344Z,78.10
2022-09-05T11:07:19.447Z,78.10
2022-09-05T11:10:31.281Z,76.40
2022-09-05T11:13:34.309Z,76.00
2022-09-05T11:16:31.344Z,75.80
2022-09-05T11:19:42.281Z,75.30
2022-09-05T11:22:44.347Z,74.10
2022-09-05T11:25:40.554Z,73.90
2022-09-05T11:28:52.410Z,73.50
2022-09-05T11:38:11.820Z,72.30
2022-09-05T11:39:47.120Z,71.70
2022-09-05T11:40:02.337Z,71.20
2022-09-05T11:42:50.322Z,70.30
2022-09-05T11:46:03.369Z,70.10
2022-09-05T11:49:24.342Z,69.90
2022-09-05T11:52:22.094Z,69.50
2022-09-05T11:55:31.371Z,69.00
2022-09-05T11:58:45.019Z,68.60
2022-09-05T12:02:16.738Z,68.10
2022-09-05T12:05:58.631Z,68.00
2022-09-05T12:09:10.938Z,68.20
2022-09-05T12:12:41.436Z,68.00
2022-09-05T12:15:34.145Z,67.10
2022-09-05T12:18:43.401Z,66.40
2022-09-05T12:22:08.827Z,65.80
2022-09-05T12:26:41.659Z,66.60
2022-09-05T12:29:26.251Z,67.00
2022-09-05T12:33:35.263Z,66.60
2022-09-05T12:36:10.278Z,65.50
2022-09-05T12:40:57.438Z,64.60
2022-09-05T12:42:13.889Z,64.20
2022-09-05T12:45:12.614Z,64.30
2022-09-05T12:48:38.490Z,64.70
2022-09-05T12:51:46.274Z,65.20
2022-09-05T12:55:01.461Z,65.40
2022-09-05T13:02:58.281Z,65.10
2022-09-05T13:03:13.208Z,63.30
2022-09-05T13:04:52.480Z,62.00
2022-09-05T13:08:03.510Z,62.60
2022-09-05T13:14:48.923Z,62.70
2022-09-05T13:15:01.807Z,62.60
2022-09-05T13:17:51.367Z,62.50
2022-09-05T13:20:53.536Z,62.50
2022-09-05T13:23:53.554Z,63.10
2022-09-05T13:27:21.489Z,63.80
2022-09-05T13:37:54.055Z,63.70
2022-09-05T13:38:03.041Z,64.20
2022-09-05T13:38:11.033Z,64.40
2022-09-05T13:40:30.717Z,63.50
2022-09-05T13:43:35.530Z,62.70
2022-09-05T13:46:42.526Z,62.60
2022-09-05T13:49:44.739Z,62.90
2022-09-05T13:52:44.525Z,62.60
2022-09-05T13:55:54.073Z,62.80
2022-09-05T13:59:08.554Z,63.80
2022-09-05T14:06:47.701Z,63.60
2022-09-05T14:09:56.629Z,63.60
2022-09-05T14:12:48.671Z,63.30
2022-09-05T14:16:06.556Z,65.30
2022-09-05T14:19:13.114Z,66.20
2022-09-05T14:22:20.224Z,67.10
2022-09-05T14:25:36.609Z,65.50
2022-09-05T14:28:34.158Z,66.80
2022-09-05T14:37:07.065Z,66.00
2022-09-05T14:37:58.458Z,66.60
2022-09-05T14:38:49.202Z,64.30
2022-09-05T14:42:22.634Z,67.80
2022-09-05T14:45:38.099Z,67.30
2022-09-05T14:48:39.370Z,66.90
2022-09-05T14:51:36.103Z,66.70
2022-09-05T15:02:45.214Z,68.50
2022-09-05T15:02:54.898Z,67.80
2022-09-05T15:04:48.642Z,68.60
2022-09-05T15:07:48.641Z,69.00
2022-09-05T15:12:23.597Z,68.40
2022-09-05T15:14:11.140Z,67.90
2022-09-05T15:17:11.645Z,67.00
2022-09-05T15:20:13.698Z,66.40
2022-09-05T15:23:16.273Z,64.90
2022-09-05T15:26:13.652Z,65.00
2022-09-05T15:29:14.595Z,64.10
2022-09-05T15:32:30.686Z,65.20
2022-09-05T15:35:36.415Z,65.60
2022-09-05T15:38:54.476Z,65.40
2022-09-05T15:41:43.619Z,66.00
2022-09-05T15:44:53.157Z,67.10
2022-09-05T15:47:59.779Z,67.30
2022-09-05T15:50:56.716Z,67.10
2022-09-05T15:53:50.729Z,67.90
2022-09-05T15:56:52.746Z,68.80
2022-09-05T15:59:55.722Z,69.80
2022-09-05T16:03:01.033Z,70.20
2022-09-05T16:10:33.926Z,71.10
2022-09-05T16:10:34.228Z,70.40
2022-09-05T16:13:01.770Z,70.50
2022-09-05T16:22:26.618Z,71.90
2022-09-05T16:23:24.621Z,73.60
2022-09-05T16:23:33.599Z,72.80
2022-09-05T16:25:45.653Z,73.90
2022-09-05T16:28:47.774Z,73.70
2022-09-05T16:31:46.808Z,74.00
2022-09-05T16:35:00.826Z,74.50
2022-09-05T16:38:04.774Z,75.40
2022-09-05T16:41:24.123Z,74.90
2022-09-05T16:44:34.947Z,74.30
2022-09-05T16:47:45.809Z,75.10
2022-09-05T16:50:48.037Z,75.90
2022-09-05T16:54:01.841Z,76.00
2022-09-05T16:57:00.834Z,76.90
2022-09-05T16:59:49.109Z,77.30
2022-09-05T17:02:54.873Z,77.50
2022-09-05T17:05:58.877Z,77.90
2022-09-05T17:08:56.786Z,78.00
2022-09-05T17:12:02.375Z,78.20
2022-09-05T17:15:03.843Z,78.70
2022-09-05T17:18:22.162Z,78.70
2022-09-05T17:21:18.736Z,78.30
2022-09-05T17:29:18.696Z,78.60
2022-09-05T17:29:46.854Z,78.40
2022-09-05T17:34:27.875Z,79.60
2022-09-05T17:37:30.404Z,80.20
2022-09-05T17:40:46.935Z,79.70
2022-09-05T17:43:40.136Z,79.10
2022-09-05T17:46:37.905Z,78.50
2022-09-05T17:50:17.901Z,78.60
2022-09-05T17:53:26.225Z,79.10
2022-09-05T17:56:38.102Z,79.70
2022-09-05T17:59:34.922Z,80.00
2022-09-05T18:02:22.070Z,80.40
2022-09-05T18:05:59.500Z,80.20
2022-09-05T18:08:55.044Z,79.80
2022-09-05T18:13:11.628Z,80.30
2022-09-05T18:15:40.929Z,79.40
2022-09-05T18:19:28.688Z,79.20
2022-09-05T18:21:56.950Z,80.00
2022-09-05T18:24:46.967Z,80.40
2022-09-05T18:28:05.426Z,80.70
2022-09-05T18:30:53.900Z,80.90
2022-09-05T18:34:19.950Z,81.20
2022-09-05T18:37:36.997Z,81.80
2022-09-05T18:40:43.011Z,81.80
2022-09-05T18:44:12.571Z,81.80
2022-09-05T18:47:32.996Z,82.30
2022-09-05T18:50:33.992Z,82.50
2022-09-05T18:53:36.029Z,83.00
2022-09-05T18:56:37.087Z,83.30
2022-09-05T18:59:41.003Z,80.00
2022-09-05T19:02:59.055Z,80.60
2022-09-05T19:06:34.713Z,81.40
2022-09-05T19:09:21.013Z,82.00
2022-09-05T19:12:34.582Z,82.80
2022-09-05T19:15:31.481Z,83.40
2022-09-05T19:18:31.078Z,84.30
2022-09-05T19:21:22.310Z,84.90
2022-09-05T19:24:36.575Z,85.50
2022-09-05T19:30:19.400Z,86.10
2022-09-05T19:36:51.245Z,87.20
2022-09-05T19:37:02.462Z,86.60
2022-09-05T19:37:48.438Z,87.60
2022-09-05T19:47:27.221Z,87.80
2022-09-05T19:47:43.624Z,88.10
2022-09-05T19:50:44.824Z,88.60
2022-09-05T19:53:39.434Z,88.60
2022-09-05T19:56:45.110Z,89.00
2022-09-05T19:59:47.090Z,89.50
2022-09-05T20:02:41.149Z,90.00
2022-09-05T20:05:28.571Z,90.10
2022-09-05T20:08:22.153Z,90.60
2022-09-05T20:11:16.119Z,92.00
2022-09-05T20:14:28.967Z,93.10
2022-09-05T20:17:38.215Z,93.90
2022-09-05T20:20:31.303Z,94.40
2022-09-05T20:23:26.142Z,94.90
2022-09-05T20:26:13.297Z,95.30
2022-09-05T20:29:11.149Z,95.70
2022-09-05T20:31:59.349Z,96.00
2022-09-05T20:35:40.757Z,96.10
2022-09-05T20:43:10.384Z,96.00
2022-09-05T20:43:14.516Z,96.30
2022-09-05T20:44:55.146Z,96.60
2022-09-05T20:54:10.442Z,96.90
2022-09-05T20:54:21.349Z,96.90
2022-09-05T20:54:39.548Z,97.20
2022-09-05T20:57:39.192Z,97.40
2022-09-05T21:00:33.249Z,97.80
2022-09-05T21:03:28.539Z,97.90
2022-09-05T21:06:43.194Z,98.10
2022-09-05T21:09:30.652Z,98.40
2022-09-05T21:12:28.259Z,98.80
2022-09-05T21:15:21.296Z,99.00
2022-09-05T21:18:40.256Z,99.30
2022-09-05T21:21:35.154Z,99.60
2022-09-05T21:24:31.210Z,99.90
2022-09-05T21:27:31.251Z,99.90
2022-09-05T21:30:23.028Z,99.90
2022-09-05T21:33:29.471Z,99.90
2022-09-05T21:36:39.232Z,99.90
2022-09-05T21:39:59.898Z,99.90
2022-09-05T21:47:34.726Z,99.90
2022-09-05T21:47:43.877Z,99.90
2022-09-05T21:49:32.410Z,99.90
2022-09-05T21:52:30.309Z,99.90
2022-09-05T21:59:16.405Z,99.90
2022-09-05T21:59:19.174Z,99.90
2022-09-05T22:02:13.378Z,99.90
2022-09-05T22:05:03.339Z,99.90
2022-09-05T22:08:00.276Z,99.90
2022-09-05T22:10:51.390Z,99.90
2022-09-05T22:13:47.306Z,99.90
2022-09-05T22:16:44.937Z,99.90
2022-09-05T22:19:40.315Z,99.90
2022-09-05T22:22:28.410Z,99.90
2022-09-05T22:25:33.342Z,99.90
2022-09-05T22:28:26.416Z,99.90
2022-09-05T22:31:28.380Z,99.90
2022-09-05T22:34:22.469Z,99.90
2022-09-05T22:37:16.346Z,99.90
2022-09-05T22:40:10.395Z,99.90
2022-09-05T22:43:09.521Z,99.90
2022-09-05T22:46:03.466Z,99.90
2022-09-05T22:48:57.342Z,99.90
2022-09-05T22:51:44.420Z,99.90
2022-09-05T22:54:38.384Z,99.90
2022-09-05T22:57:25.503Z,99.90
2022-09-05T23:00:19.397Z,99.90
2022-09-05T23:03:13.394Z,99.90
2022-09-05T23:06:08.714Z,99.90
2022-09-05T23:09:02.418Z,99.90
2022-09-05T23:11:56.459Z,99.90
2022-09-05T23:14:43.513Z,99.90
2022-09-05T23:17:37.417Z,99.90
2022-09-05T23:20:33.408Z,99.90
2022-09-05T23:23:20.613Z,99.90
2022-09-05T23:26:17.423Z,99.90
2022-09-05T23:29:04.660Z,99.90
2022-09-05T23:31:58.410Z,99.90
2022-09-05T23:34:52.629Z,99.90
2022-09-05T23:37:46.897Z,99.90
2022-09-05T23:40:40.473Z,99.90
2022-09-05T23:43:27.641Z,99.90
2022-09-05T23:46:21.498Z,99.90
2022-09-05T23:49:15.486Z,99.90
2022-09-05T23:52:09.513Z,99.90
2022-09-05T23:54:56.748Z,99.90
2022-09-05T23:57:51.517Z,99.90
